sensor_id;sensor_type;location;lat;lon;timestamp;temperature;humidity
8067;DHT22;4076;48.076;9.118;2023-04-29T00:00:06;12.10;99.90
8067;DHT22;4076;48.076;9.118;2023-04-29T00:02:32;12.20;99.90
8067;DHT22;4076;48.076;9.118;2023-04-29T00:04:58;12.20;99.90
8067;DHT22;4076;48.076;9.118;2023-04-29T00:07:24;12.20;99.90
8067;DHT22;4076;48.076;9.118;2023-04-29T00:09:49;12.20;99.90
8067;DHT22;4076;48.076;9.118;2023-04-29T00:12:15;12.10;99.90
8067;DHT22;4076;48.076;9.118;2023-04-29T00:14:41;12.10;99.90
8067;DHT22;4076;48.076;9.118;2023-04-29T00:17:08;12.10;99.90
8067;DHT22;4076;48.076;9.118;2023-04-29T00:19:33;12.10;99.90
8067;DHT22;4076;48.076;9.118;2023-04-29T00:21:59;12.10;99.90
8067;DHT22;4076;48.076;9.118;2023-04-29T00:24:25;12.10;99.90
8067;DHT22;4076;48.076;9.118;2023-04-29T00:26:51;12.00;99.90
8067;DHT22;4076;48.076;9.118;2023-04-29T00:29:17;12.00;99.90
8067;DHT22;4076;48.076;9.118;2023-04-29T00:31:43;12.00;99.90
8067;DHT22;4076;48.076;9.118;2023-04-29T00:34:09;11.90;99.90
8067;DHT22;4076;48.076;9.118;2023-04-29T00:36:35;11.90;99.90
8067;DHT22;4076;48.076;9.118;2023-04-29T00:39:01;11.80;99.90
8067;DHT22;4076;48.076;9.118;2023-04-29T00:41:27;11.70;99.90
8067;DHT22;4076;48.076;9.118;2023-04-29T00:43:54;11.70;99.90
8067;DHT22;4076;48.076;9.118;2023-04-29T00:46:19;11.70;99.90
8067;DHT22;4076;48.076;9.118;2023-04-29T00:48:45;11.60;99.90
8067;DHT22;4076;48.076;9.118;2023-04-29T00:51:11;11.60;99.90
8067;DHT22;4076;48.076;9.118;2023-04-29T00:53:38;11.50;99.90
8067;DHT22;4076;48.076;9.118;2023-04-29T00:56:04;11.50;99.90
8067;DHT22;4076;48.076;9.118;2023-04-29T00:58:32;11.50;99.90
8067;DHT22;4076;48.076;9.118;2023-04-29T01:01:02;11.40;99.90
8067;DHT22;4076;48.076;9.118;2023-04-29T01:03:29;11.40;99.90
8067;DHT22;4076;48.076;9.118;2023-04-29T01:11:41;11.20;99.90
8067;DHT22;4076;48.076;9.118;2023-04-29T01:14:11;11.20;99.90
8067;DHT22;4076;48.076;9.118;2023-04-29T01:16:44;11.20;99.90
8067;DHT22;4076;48.076;9.118;2023-04-29T01:19:24;11.20;99.90
8067;DHT22;4076;48.076;9.118;2023-04-29T01:21:55;11.20;99.90
8067;DHT22;4076;48.076;9.118;2023-04-29T01:24:21;11.20;99.90
8067;DHT22;4076;48.076;9.118;2023-04-29T01:40:46;10.90;99.90
8067;DHT22;4076;48.076;9.118;2023-04-29T01:43:14;10.90;99.90
8067;DHT22;4076;48.076;9.118;2023-04-29T01:45:40;10.90;99.90
8067;DHT22;4076;48.076;9.118;2023-04-29T01:48:09;10.90;99.90
8067;DHT22;4076;48.076;9.118;2023-04-29T01:50:35;10.90;99.90
8067;DHT22;4076;48.076;9.118;2023-04-29T01:53:01;10.90;99.90
8067;DHT22;4076;48.076;9.118;2023-04-29T01:55:26;10.80;99.90
8067;DHT22;4076;48.076;9.118;2023-04-29T01:57:52;10.80;99.90
8067;DHT22;4076;48.076;9.118;2023-04-29T02:00:18;10.80;99.90
8067;DHT22;4076;48.076;9.118;2023-04-29T02:02:43;10.80;99.90
8067;DHT22;4076;48.076;9.118;2023-04-29T02:05:09;10.80;99.90
8067;DHT22;4076;48.076;9.118;2023-04-29T02:07:35;10.80;99.90
8067;DHT22;4076;48.076;9.118;2023-04-29T02:10:01;10.80;99.90
8067;DHT22;4076;48.076;9.118;2023-04-29T02:12:26;10.70;99.90
8067;DHT22;4076;48.076;9.118;2023-04-29T02:14:52;10.70;99.90
8067;DHT22;4076;48.076;9.118;2023-04-29T02:17:18;10.70;99.90
8067;DHT22;4076;48.076;9.118;2023-04-29T02:19:44;10.70;99.90
8067;DHT22;4076;48.076;9.118;2023-04-29T02:22:09;10.70;99.90
8067;DHT22;4076;48.076;9.118;2023-04-29T02:24:37;10.70;99.90
8067;DHT22;4076;48.076;9.118;2023-04-29T02:27:02;10.80;99.90
8067;DHT22;4076;48.076;9.118;2023-04-29T02:29:30;10.80;99.90
8067;DHT22;4076;48.076;9.118;2023-04-29T02:31:56;10.80;99.90
8067;DHT22;4076;48.076;9.118;2023-04-29T02:34:21;10.80;99.90
8067;DHT22;4076;48.076;9.118;2023-04-29T02:36:48;10.90;99.90
8067;DHT22;4076;48.076;9.118;2023-04-29T02:39:14;10.90;99.90
8067;DHT22;4076;48.076;9.118;2023-04-29T02:41:40;10.90;99.90
8067;DHT22;4076;48.076;9.118;2023-04-29T02:44:06;10.90;99.90
8067;DHT22;4076;48.076;9.118;2023-04-29T02:46:32;10.90;99.90
8067;DHT22;4076;48.076;9.118;2023-04-29T02:48:59;10.90;99.90
8067;DHT22;4076;48.076;9.118;2023-04-29T02:51:26;10.90;99.90
8067;DHT22;4076;48.076;9.118;2023-04-29T02:53:52;10.90;99.90
8067;DHT22;4076;48.076;9.118;2023-04-29T02:56:18;10.90;99.90
8067;DHT22;4076;48.076;9.118;2023-04-29T02:58:43;10.90;99.90
8067;DHT22;4076;48.076;9.118;2023-04-29T03:01:09;10.90;99.90
8067;DHT22;4076;48.076;9.118;2023-04-29T03:03:35;10.90;99.90
8067;DHT22;4076;48.076;9.118;2023-04-29T03:06:00;10.90;99.90
8067;DHT22;4076;48.076;9.118;2023-04-29T03:08:26;10.90;99.90
8067;DHT22;4076;48.076;9.118;2023-04-29T03:10:52;10.80;99.90
8067;DHT22;4076;48.076;9.118;2023-04-29T03:13:18;10.80;99.90
8067;DHT22;4076;48.076;9.118;2023-04-29T03:15:43;10.70;99.90
8067;DHT22;4076;48.076;9.118;2023-04-29T03:18:09;10.80;99.90
8067;DHT22;4076;48.076;9.118;2023-04-29T03:20:35;10.80;99.90
8067;DHT22;4076;48.076;9.118;2023-04-29T03:23:01;10.80;99.90
8067;DHT22;4076;48.076;9.118;2023-04-29T03:25:27;10.80;99.90
8067;DHT22;4076;48.076;9.118;2023-04-29T03:27:53;10.80;99.90
8067;DHT22;4076;48.076;9.118;2023-04-29T03:30:18;10.80;99.90
8067;DHT22;4076;48.076;9.118;2023-04-29T03:32:44;10.80;99.90
8067;DHT22;4076;48.076;9.118;2023-04-29T03:35:09;10.80;99.90
8067;DHT22;4076;48.076;9.118;2023-04-29T03:37:36;10.80;99.90
8067;DHT22;4076;48.076;9.118;2023-04-29T03:40:02;10.80;99.90
8067;DHT22;4076;48.076;9.118;2023-04-29T03:42:28;10.90;99.90
8067;DHT22;4076;48.076;9.118;2023-04-29T03:44:54;10.90;99.90
8067;DHT22;4076;48.076;9.118;2023-04-29T03:47:19;10.90;99.90
8067;DHT22;4076;48.076;9.118;2023-04-29T03:49:45;10.90;99.90
8067;DHT22;4076;48.076;9.118;2023-04-29T03:52:10;10.90;99.90
8067;DHT22;4076;48.076;9.118;2023-04-29T03:54:37;10.90;99.90
8067;DHT22;4076;48.076;9.118;2023-04-29T03:57:02;10.90;99.90
8067;DHT22;4076;48.076;9.118;2023-04-29T03:59:29;10.90;99.90
8067;DHT22;4076;48.076;9.118;2023-04-29T04:01:54;10.90;99.90
8067;DHT22;4076;48.076;9.118;2023-04-29T04:04:20;10.90;99.90
8067;DHT22;4076;48.076;9.118;2023-04-29T04:06:46;10.80;99.90
8067;DHT22;4076;48.076;9.118;2023-04-29T04:09:19;10.80;99.90
8067;DHT22;4076;48.076;9.118;2023-04-29T04:11:45;10.80;99.90
8067;DHT22;4076;48.076;9.118;2023-04-29T04:14:11;10.90;99.90
8067;DHT22;4076;48.076;9.118;2023-04-29T04:16:36;10.90;99.90
8067;DHT22;4076;48.076;9.118;2023-04-29T04:19:02;10.90;99.90
8067;DHT22;4076;48.076;9.118;2023-04-29T04:21:28;10.90;99.90
8067;DHT22;4076;48.076;9.118;2023-04-29T04:23:54;10.90;99.90
8067;DHT22;4076;48.076;9.118;2023-04-29T04:26:20;10.90;99.90
8067;DHT22;4076;48.076;9.118;2023-04-29T04:28:46;10.90;99.90
8067;DHT22;4076;48.076;9.118;2023-04-29T04:31:11;10.80;99.90
8067;DHT22;4076;48.076;9.118;2023-04-29T04:33:40;10.80;99.90
8067;DHT22;4076;48.076;9.118;2023-04-29T04:36:06;10.90;99.90
8067;DHT22;4076;48.076;9.118;2023-04-29T04:38:32;10.90;99.90
8067;DHT22;4076;48.076;9.118;2023-04-29T04:40:58;10.90;99.90
8067;DHT22;4076;48.076;9.118;2023-04-29T04:43:23;10.90;99.90
8067;DHT22;4076;48.076;9.118;2023-04-29T04:45:49;10.90;99.90
8067;DHT22;4076;48.076;9.118;2023-04-29T04:48:15;11.00;99.90
8067;DHT22;4076;48.076;9.118;2023-04-29T04:50:40;11.00;99.90
8067;DHT22;4076;48.076;9.118;2023-04-29T04:53:06;11.00;99.90
8067;DHT22;4076;48.076;9.118;2023-04-29T04:55:32;11.00;99.90
8067;DHT22;4076;48.076;9.118;2023-04-29T04:58:01;11.10;99.90
8067;DHT22;4076;48.076;9.118;2023-04-29T05:00:26;11.10;99.90
8067;DHT22;4076;48.076;9.118;2023-04-29T05:02:52;11.20;99.90
8067;DHT22;4076;48.076;9.118;2023-04-29T05:05:17;11.20;99.90
8067;DHT22;4076;48.076;9.118;2023-04-29T05:07:43;11.30;99.90
8067;DHT22;4076;48.076;9.118;2023-04-29T05:10:09;11.30;99.90
8067;DHT22;4076;48.076;9.118;2023-04-29T05:12:34;11.30;99.90
8067;DHT22;4076;48.076;9.118;2023-04-29T05:15:01;11.40;99.90
8067;DHT22;4076;48.076;9.118;2023-04-29T05:17:27;11.50;99.90
8067;DHT22;4076;48.076;9.118;2023-04-29T05:19:52;11.60;99.90
8067;DHT22;4076;48.076;9.118;2023-04-29T05:22:18;11.60;99.90
8067;DHT22;4076;48.076;9.118;2023-04-29T05:24:43;11.70;99.90
8067;DHT22;4076;48.076;9.118;2023-04-29T05:27:09;11.70;99.90
8067;DHT22;4076;48.076;9.118;2023-04-29T05:29:34;11.70;99.90
8067;DHT22;4076;48.076;9.118;2023-04-29T05:32:00;11.70;99.90
8067;DHT22;4076;48.076;9.118;2023-04-29T05:34:25;11.80;99.90
8067;DHT22;4076;48.076;9.118;2023-04-29T05:36:51;11.80;99.90
8067;DHT22;4076;48.076;9.118;2023-04-29T05:39:17;11.90;99.90
8067;DHT22;4076;48.076;9.118;2023-04-29T05:41:43;12.00;99.90
8067;DHT22;4076;48.076;9.118;2023-04-29T05:44:09;12.20;99.90
8067;DHT22;4076;48.076;9.118;2023-04-29T05:46:35;12.20;99.90
8067;DHT22;4076;48.076;9.118;2023-04-29T05:49:00;12.20;99.90
8067;DHT22;4076;48.076;9.118;2023-04-29T05:51:26;12.30;99.90
8067;DHT22;4076;48.076;9.118;2023-04-29T05:53:53;12.30;99.90
8067;DHT22;4076;48.076;9.118;2023-04-29T05:56:18;12.30;99.90
8067;DHT22;4076;48.076;9.118;2023-04-29T05:58:44;12.30;99.90
8067;DHT22;4076;48.076;9.118;2023-04-29T06:01:10;12.40;99.90
8067;DHT22;4076;48.076;9.118;2023-04-29T06:03:35;12.40;99.90
8067;DHT22;4076;48.076;9.118;2023-04-29T06:06:01;12.30;99.90
8067;DHT22;4076;48.076;9.118;2023-04-29T06:08:28;12.20;99.90
8067;DHT22;4076;48.076;9.118;2023-04-29T06:10:53;12.10;99.90
8067;DHT22;4076;48.076;9.118;2023-04-29T06:13:19;12.20;99.90
8067;DHT22;4076;48.076;9.118;2023-04-29T06:15:45;12.30;99.90
8067;DHT22;4076;48.076;9.118;2023-04-29T06:18:10;12.40;99.90
8067;DHT22;4076;48.076;9.118;2023-04-29T06:20:36;12.60;99.90
8067;DHT22;4076;48.076;9.118;2023-04-29T06:23:01;12.80;99.90
8067;DHT22;4076;48.076;9.118;2023-04-29T06:25:27;12.80;99.90
8067;DHT22;4076;48.076;9.118;2023-04-29T06:27:53;12.80;99.90
8067;DHT22;4076;48.076;9.118;2023-04-29T06:30:18;13.00;99.90
8067;DHT22;4076;48.076;9.118;2023-04-29T06:32:44;13.10;99.90
8067;DHT22;4076;48.076;9.118;2023-04-29T06:35:10;13.20;99.90
8067;DHT22;4076;48.076;9.118;2023-04-29T06:37:35;13.30;99.90
8067;DHT22;4076;48.076;9.118;2023-04-29T06:40:01;13.20;99.90
8067;DHT22;4076;48.076;9.118;2023-04-29T06:42:26;13.10;99.90
8067;DHT22;4076;48.076;9.118;2023-04-29T06:44:53;13.00;99.90
8067;DHT22;4076;48.076;9.118;2023-04-29T06:47:18;13.00;99.90
8067;DHT22;4076;48.076;9.118;2023-04-29T06:49:44;13.20;99.90
8067;DHT22;4076;48.076;9.118;2023-04-29T06:52:10;13.50;99.90
8067;DHT22;4076;48.076;9.118;2023-04-29T06:54:36;13.70;99.90
8067;DHT22;4076;48.076;9.118;2023-04-29T06:57:01;13.70;99.90
8067;DHT22;4076;48.076;9.118;2023-04-29T06:59:27;13.70;99.90
8067;DHT22;4076;48.076;9.118;2023-04-29T07:01:52;13.70;99.90
8067;DHT22;4076;48.076;9.118;2023-04-29T07:04:18;13.60;99.90
8067;DHT22;4076;48.076;9.118;2023-04-29T07:06:44;13.60;99.90
8067;DHT22;4076;48.076;9.118;2023-04-29T07:09:11;13.60;99.90
8067;DHT22;4076;48.076;9.118;2023-04-29T07:11:38;13.60;99.90
8067;DHT22;4076;48.076;9.118;2023-04-29T07:14:04;13.60;99.90
8067;DHT22;4076;48.076;9.118;2023-04-29T07:16:30;13.60;99.90
8067;DHT22;4076;48.076;9.118;2023-04-29T07:18:55;13.60;99.90
8067;DHT22;4076;48.076;9.118;2023-04-29T07:21:21;13.60;99.90
8067;DHT22;4076;48.076;9.118;2023-04-29T07:23:46;13.60;99.90
8067;DHT22;4076;48.076;9.118;2023-04-29T07:26:13;13.70;99.90
8067;DHT22;4076;48.076;9.118;2023-04-29T07:28:40;13.80;99.90
8067;DHT22;4076;48.076;9.118;2023-04-29T07:31:06;14.20;99.90
8067;DHT22;4076;48.076;9.118;2023-04-29T07:33:32;14.70;99.90
8067;DHT22;4076;48.076;9.118;2023-04-29T07:35:58;15.10;99.90
8067;DHT22;4076;48.076;9.118;2023-04-29T07:38:24;15.90;99.90
8067;DHT22;4076;48.076;9.118;2023-04-29T07:40:49;17.40;99.90
8067;DHT22;4076;48.076;9.118;2023-04-29T07:43:15;19.10;99.90
8067;DHT22;4076;48.076;9.118;2023-04-29T07:45:40;21.00;99.90
8067;DHT22;4076;48.076;9.118;2023-04-29T07:48:06;22.90;99.90
8067;DHT22;4076;48.076;9.118;2023-04-29T07:50:34;24.30;85.00
8067;DHT22;4076;48.076;9.118;2023-04-29T07:53:01;24.10;79.20
8067;DHT22;4076;48.076;9.118;2023-04-29T07:55:27;23.50;77.60
8067;DHT22;4076;48.076;9.118;2023-04-29T07:57:55;22.80;79.30
8067;DHT22;4076;48.076;9.118;2023-04-29T08:00:22;23.70;79.10
8067;DHT22;4076;48.076;9.118;2023-04-29T08:02:51;25.60;78.50
8067;DHT22;4076;48.076;9.118;2023-04-29T08:05:17;27.30;61.70
8067;DHT22;4076;48.076;9.118;2023-04-29T08:07:44;28.70;58.60
8067;DHT22;4076;48.076;9.118;2023-04-29T08:10:10;29.30;55.00
8067;DHT22;4076;48.076;9.118;2023-04-29T08:12:36;29.70;53.20
8067;DHT22;4076;48.076;9.118;2023-04-29T08:15:02;30.00;51.90
8067;DHT22;4076;48.076;9.118;2023-04-29T08:17:27;29.90;49.70
8067;DHT22;4076;48.076;9.118;2023-04-29T08:19:53;29.60;47.80
8067;DHT22;4076;48.076;9.118;2023-04-29T08:22:18;30.40;46.80
8067;DHT22;4076;48.076;9.118;2023-04-29T08:24:44;30.30;46.90
8067;DHT22;4076;48.076;9.118;2023-04-29T08:27:10;30.90;46.00
8067;DHT22;4076;48.076;9.118;2023-04-29T08:29:36;30.90;44.30
8067;DHT22;4076;48.076;9.118;2023-04-29T08:32:02;30.30;45.00
8067;DHT22;4076;48.076;9.118;2023-04-29T08:34:27;30.80;45.50
8067;DHT22;4076;48.076;9.118;2023-04-29T08:36:53;32.90;42.40
8067;DHT22;4076;48.076;9.118;2023-04-29T08:39:18;34.50;39.70
8067;DHT22;4076;48.076;9.118;2023-04-29T08:44:14;37.20;51.80
8067;DHT22;4076;48.076;9.118;2023-04-29T08:46:40;38.70;35.20
8067;DHT22;4076;48.076;9.118;2023-04-29T08:49:06;39.60;36.80
8067;DHT22;4076;48.076;9.118;2023-04-29T08:51:32;40.70;49.10
8067;DHT22;4076;48.076;9.118;2023-04-29T08:53:58;41.00;47.60
8067;DHT22;4076;48.076;9.118;2023-04-29T08:56:24;40.30;47.60
8067;DHT22;4076;48.076;9.118;2023-04-29T08:58:52;37.70;29.20
8067;DHT22;4076;48.076;9.118;2023-04-29T09:01:20;35.20;31.60
8067;DHT22;4076;48.076;9.118;2023-04-29T09:06:48;35.90;32.50
8067;DHT22;4076;48.076;9.118;2023-04-29T09:09:14;37.30;31.60
8067;DHT22;4076;48.076;9.118;2023-04-29T09:11:40;37.40;30.00
8067;DHT22;4076;48.076;9.118;2023-04-29T09:14:06;36.50;30.00
8067;DHT22;4076;48.076;9.118;2023-04-29T09:16:33;35.80;31.00
8067;DHT22;4076;48.076;9.118;2023-04-29T09:19:01;35.60;31.00
8067;DHT22;4076;48.076;9.118;2023-04-29T09:21:28;34.80;31.20
8067;DHT22;4076;48.076;9.118;2023-04-29T09:23:58;33.30;32.40
8067;DHT22;4076;48.076;9.118;2023-04-29T09:26:25;31.90;33.00
8067;DHT22;4076;48.076;9.118;2023-04-29T09:29:07;30.20;34.30
8067;DHT22;4076;48.076;9.118;2023-04-29T09:31:35;29.60;36.30
8067;DHT22;4076;48.076;9.118;2023-04-29T09:34:01;29.00;37.50
8067;DHT22;4076;48.076;9.118;2023-04-29T09:39:16;27.30;38.70
8067;DHT22;4076;48.076;9.118;2023-04-29T09:44:17;29.10;38.50
8067;DHT22;4076;48.076;9.118;2023-04-29T09:46:43;30.30;36.50
8067;DHT22;4076;48.076;9.118;2023-04-29T09:52:01;31.10;36.30
8067;DHT22;4076;48.076;9.118;2023-04-29T09:54:30;30.90;36.50
8067;DHT22;4076;48.076;9.118;2023-04-29T09:56:57;29.60;36.50
8067;DHT22;4076;48.076;9.118;2023-04-29T09:59:23;28.20;38.00
8067;DHT22;4076;48.076;9.118;2023-04-29T10:01:51;27.20;40.10
8067;DHT22;4076;48.076;9.118;2023-04-29T10:04:18;26.80;42.10
8067;DHT22;4076;48.076;9.118;2023-04-29T10:06:48;26.80;41.90
8067;DHT22;4076;48.076;9.118;2023-04-29T10:09:14;26.80;42.30
8067;DHT22;4076;48.076;9.118;2023-04-29T10:11:41;26.70;42.20
8067;DHT22;4076;48.076;9.118;2023-04-29T10:14:12;26.60;42.40
8067;DHT22;4076;48.076;9.118;2023-04-29T10:16:47;26.50;41.30
8067;DHT22;4076;48.076;9.118;2023-04-29T10:19:38;26.40;43.40
8067;DHT22;4076;48.076;9.118;2023-04-29T10:22:08;26.30;43.80
8067;DHT22;4076;48.076;9.118;2023-04-29T10:24:37;26.10;43.50
8067;DHT22;4076;48.076;9.118;2023-04-29T10:27:06;25.90;44.40
8067;DHT22;4076;48.076;9.118;2023-04-29T10:29:35;25.70;42.60
8067;DHT22;4076;48.076;9.118;2023-04-29T10:32:03;25.30;43.90
8067;DHT22;4076;48.076;9.118;2023-04-29T10:34:32;25.40;45.20
8067;DHT22;4076;48.076;9.118;2023-04-29T10:36:59;25.60;45.40
8067;DHT22;4076;48.076;9.118;2023-04-29T10:39:46;25.50;44.70
8067;DHT22;4076;48.076;9.118;2023-04-29T10:42:20;25.30;45.30
8067;DHT22;4076;48.076;9.118;2023-04-29T10:50:28;25.50;45.90
8067;DHT22;4076;48.076;9.118;2023-04-29T10:52:54;25.70;43.30
8067;DHT22;4076;48.076;9.118;2023-04-29T10:55:23;25.70;44.80
8067;DHT22;4076;48.076;9.118;2023-04-29T10:57:51;25.50;44.40
8067;DHT22;4076;48.076;9.118;2023-04-29T11:00:27;25.30;43.90
8067;DHT22;4076;48.076;9.118;2023-04-29T11:02:54;25.00;44.90
8067;DHT22;4076;48.076;9.118;2023-04-29T11:08:22;24.50;46.00
8067;DHT22;4076;48.076;9.118;2023-04-29T11:10:59;24.40;45.80
8067;DHT22;4076;48.076;9.118;2023-04-29T11:13:29;24.40;46.00
8067;DHT22;4076;48.076;9.118;2023-04-29T11:16:16;24.20;45.30
8067;DHT22;4076;48.076;9.118;2023-04-29T11:21:36;24.00;45.40
8067;DHT22;4076;48.076;9.118;2023-04-29T11:24:02;24.00;45.40
8067;DHT22;4076;48.076;9.118;2023-04-29T11:26:31;24.10;46.50
8067;DHT22;4076;48.076;9.118;2023-04-29T11:28:56;24.30;46.70
8067;DHT22;4076;48.076;9.118;2023-04-29T11:31:41;24.30;46.70
8067;DHT22;4076;48.076;9.118;2023-04-29T11:34:06;24.50;46.50
8067;DHT22;4076;48.076;9.118;2023-04-29T11:36:32;24.40;45.00
8067;DHT22;4076;48.076;9.118;2023-04-29T11:39:00;24.20;45.70
8067;DHT22;4076;48.076;9.118;2023-04-29T11:41:26;24.20;45.80
8067;DHT22;4076;48.076;9.118;2023-04-29T11:43:58;24.10;45.50
8067;DHT22;4076;48.076;9.118;2023-04-29T11:46:24;23.80;45.10
8067;DHT22;4076;48.076;9.118;2023-04-29T11:48:50;23.70;45.60
8067;DHT22;4076;48.076;9.118;2023-04-29T11:51:17;23.50;44.70
8067;DHT22;4076;48.076;9.118;2023-04-29T11:53:43;23.40;45.40
8067;DHT22;4076;48.076;9.118;2023-04-29T11:56:09;23.20;45.60
8067;DHT22;4076;48.076;9.118;2023-04-29T11:58:36;23.10;46.50
8067;DHT22;4076;48.076;9.118;2023-04-29T12:01:03;22.80;46.60
8067;DHT22;4076;48.076;9.118;2023-04-29T12:03:31;22.70;46.70
8067;DHT22;4076;48.076;9.118;2023-04-29T12:05:57;22.60;45.80
8067;DHT22;4076;48.076;9.118;2023-04-29T12:08:26;22.50;46.80
8067;DHT22;4076;48.076;9.118;2023-04-29T12:10:54;22.50;45.80
8067;DHT22;4076;48.076;9.118;2023-04-29T12:13:22;22.60;45.70
8067;DHT22;4076;48.076;9.118;2023-04-29T12:15:49;22.60;45.90
8067;DHT22;4076;48.076;9.118;2023-04-29T12:18:17;22.70;45.50
8067;DHT22;4076;48.076;9.118;2023-04-29T12:20:43;22.80;45.50
8067;DHT22;4076;48.076;9.118;2023-04-29T12:23:23;22.80;44.40
8067;DHT22;4076;48.076;9.118;2023-04-29T12:25:52;22.70;44.90
8067;DHT22;4076;48.076;9.118;2023-04-29T12:28:19;22.80;45.00
8067;DHT22;4076;48.076;9.118;2023-04-29T12:30:46;22.70;45.40
8067;DHT22;4076;48.076;9.118;2023-04-29T12:33:25;22.60;45.20
8067;DHT22;4076;48.076;9.118;2023-04-29T12:35:54;22.50;44.40
8067;DHT22;4076;48.076;9.118;2023-04-29T12:40:46;22.50;43.90
8067;DHT22;4076;48.076;9.118;2023-04-29T12:43:12;22.50;43.60
8067;DHT22;4076;48.076;9.118;2023-04-29T12:45:38;22.40;43.20
8067;DHT22;4076;48.076;9.118;2023-04-29T12:48:04;22.40;43.90
8067;DHT22;4076;48.076;9.118;2023-04-29T12:50:31;22.60;44.30
8067;DHT22;4076;48.076;9.118;2023-04-29T12:52:57;22.70;44.80
8067;DHT22;4076;48.076;9.118;2023-04-29T12:55:23;22.60;43.70
8067;DHT22;4076;48.076;9.118;2023-04-29T12:57:49;22.70;43.90
8067;DHT22;4076;48.076;9.118;2023-04-29T13:00:15;22.60;43.20
8067;DHT22;4076;48.076;9.118;2023-04-29T13:02:41;22.40;42.30
8067;DHT22;4076;48.076;9.118;2023-04-29T13:05:06;22.10;43.00
8067;DHT22;4076;48.076;9.118;2023-04-29T13:07:32;22.00;44.10
8067;DHT22;4076;48.076;9.118;2023-04-29T13:09:58;21.90;42.10
8067;DHT22;4076;48.076;9.118;2023-04-29T13:12:23;21.70;42.50
8067;DHT22;4076;48.076;9.118;2023-04-29T13:14:49;21.70;44.10
8067;DHT22;4076;48.076;9.118;2023-04-29T13:17:15;21.70;44.10
8067;DHT22;4076;48.076;9.118;2023-04-29T13:19:40;21.90;44.40
8067;DHT22;4076;48.076;9.118;2023-04-29T13:22:08;21.90;44.00
8067;DHT22;4076;48.076;9.118;2023-04-29T13:24:34;22.00;45.00
8067;DHT22;4076;48.076;9.118;2023-04-29T13:27:01;22.10;45.10
8067;DHT22;4076;48.076;9.118;2023-04-29T13:29:27;22.20;45.10
8067;DHT22;4076;48.076;9.118;2023-04-29T13:31:52;22.10;42.90
8067;DHT22;4076;48.076;9.118;2023-04-29T13:34:18;22.00;44.50
8067;DHT22;4076;48.076;9.118;2023-04-29T13:36:45;22.00;44.20
8067;DHT22;4076;48.076;9.118;2023-04-29T13:39:11;21.80;43.50
8067;DHT22;4076;48.076;9.118;2023-04-29T13:41:36;21.70;43.90
8067;DHT22;4076;48.076;9.118;2023-04-29T13:44:02;21.70;44.00
8067;DHT22;4076;48.076;9.118;2023-04-29T13:46:28;21.70;44.00
8067;DHT22;4076;48.076;9.118;2023-04-29T13:48:53;21.60;44.00
8067;DHT22;4076;48.076;9.118;2023-04-29T13:51:19;21.60;44.00
8067;DHT22;4076;48.076;9.118;2023-04-29T13:53:44;21.40;43.10
8067;DHT22;4076;48.076;9.118;2023-04-29T13:56:10;21.40;43.50
8067;DHT22;4076;48.076;9.118;2023-04-29T13:58:36;21.30;43.50
8067;DHT22;4076;48.076;9.118;2023-04-29T14:01:02;21.20;43.60
8067;DHT22;4076;48.076;9.118;2023-04-29T14:03:28;21.10;43.60
8067;DHT22;4076;48.076;9.118;2023-04-29T14:05:53;21.00;43.20
8067;DHT22;4076;48.076;9.118;2023-04-29T14:08:19;20.90;42.80
8067;DHT22;4076;48.076;9.118;2023-04-29T14:10:45;20.80;43.50
8067;DHT22;4076;48.076;9.118;2023-04-29T14:13:10;20.80;43.70
8067;DHT22;4076;48.076;9.118;2023-04-29T14:15:36;20.80;42.70
8067;DHT22;4076;48.076;9.118;2023-04-29T14:18:02;20.80;43.40
8067;DHT22;4076;48.076;9.118;2023-04-29T14:20:27;20.70;42.70
8067;DHT22;4076;48.076;9.118;2023-04-29T14:22:53;20.70;43.70
8067;DHT22;4076;48.076;9.118;2023-04-29T14:25:18;20.80;43.80
8067;DHT22;4076;48.076;9.118;2023-04-29T14:27:44;21.00;43.80
8067;DHT22;4076;48.076;9.118;2023-04-29T14:30:10;21.00;41.50
8067;DHT22;4076;48.076;9.118;2023-04-29T14:32:36;20.90;42.40
8067;DHT22;4076;48.076;9.118;2023-04-29T14:35:01;20.80;42.60
8067;DHT22;4076;48.076;9.118;2023-04-29T14:37:27;20.70;41.60
8067;DHT22;4076;48.076;9.118;2023-04-29T14:39:52;20.60;42.00
8067;DHT22;4076;48.076;9.118;2023-04-29T14:42:18;20.50;43.00
8067;DHT22;4076;48.076;9.118;2023-04-29T14:44:44;20.60;42.70
8067;DHT22;4076;48.076;9.118;2023-04-29T14:47:09;20.70;43.10
8067;DHT22;4076;48.076;9.118;2023-04-29T14:49:35;20.70;42.60
8067;DHT22;4076;48.076;9.118;2023-04-29T14:52:00;20.60;41.30
8067;DHT22;4076;48.076;9.118;2023-04-29T14:54:26;20.50;41.90
8067;DHT22;4076;48.076;9.118;2023-04-29T14:56:52;20.50;42.40
8067;DHT22;4076;48.076;9.118;2023-04-29T14:59:18;20.60;42.00
8067;DHT22;4076;48.076;9.118;2023-04-29T15:01:43;20.50;42.50
8067;DHT22;4076;48.076;9.118;2023-04-29T15:04:09;20.60;42.80
8067;DHT22;4076;48.076;9.118;2023-04-29T15:06:37;20.50;42.70
8067;DHT22;4076;48.076;9.118;2023-04-29T15:09:03;20.50;43.90
8067;DHT22;4076;48.076;9.118;2023-04-29T15:11:29;20.40;43.60
8067;DHT22;4076;48.076;9.118;2023-04-29T15:13:54;20.40;43.20
8067;DHT22;4076;48.076;9.118;2023-04-29T15:16:20;20.30;43.50
8067;DHT22;4076;48.076;9.118;2023-04-29T15:18:46;20.30;43.50
8067;DHT22;4076;48.076;9.118;2023-04-29T15:21:12;20.30;43.90
8067;DHT22;4076;48.076;9.118;2023-04-29T15:23:37;20.30;44.20
8067;DHT22;4076;48.076;9.118;2023-04-29T15:26:04;20.40;45.10
8067;DHT22;4076;48.076;9.118;2023-04-29T15:28:31;20.40;45.10
8067;DHT22;4076;48.076;9.118;2023-04-29T15:30:56;20.30;45.20
8067;DHT22;4076;48.076;9.118;2023-04-29T15:33:24;20.30;45.10
8067;DHT22;4076;48.076;9.118;2023-04-29T15:35:49;20.20;44.00
8067;DHT22;4076;48.076;9.118;2023-04-29T15:38:16;20.00;44.60
8067;DHT22;4076;48.076;9.118;2023-04-29T15:40:42;20.00;46.10
8067;DHT22;4076;48.076;9.118;2023-04-29T15:43:08;20.00;45.10
8067;DHT22;4076;48.076;9.118;2023-04-29T15:45:33;19.80;46.60
8067;DHT22;4076;48.076;9.118;2023-04-29T15:48:01;19.70;45.90
8067;DHT22;4076;48.076;9.118;2023-04-29T15:50:27;19.60;47.00
8067;DHT22;4076;48.076;9.118;2023-04-29T15:52:53;19.40;46.90
8067;DHT22;4076;48.076;9.118;2023-04-29T15:55:20;19.30;47.70
8067;DHT22;4076;48.076;9.118;2023-04-29T15:57:46;19.20;47.60
8067;DHT22;4076;48.076;9.118;2023-04-29T16:00:12;19.10;48.40
8067;DHT22;4076;48.076;9.118;2023-04-29T16:02:38;18.90;48.20
8067;DHT22;4076;48.076;9.118;2023-04-29T16:05:04;18.80;48.40
8067;DHT22;4076;48.076;9.118;2023-04-29T16:07:30;18.80;48.60
8067;DHT22;4076;48.076;9.118;2023-04-29T16:09:56;18.60;48.40
8067;DHT22;4076;48.076;9.118;2023-04-29T16:12:21;18.50;49.00
8067;DHT22;4076;48.076;9.118;2023-04-29T16:14:47;18.30;49.20
8067;DHT22;4076;48.076;9.118;2023-04-29T16:17:12;18.20;50.00
8067;DHT22;4076;48.076;9.118;2023-04-29T16:19:38;18.20;49.70
8067;DHT22;4076;48.076;9.118;2023-04-29T16:22:04;18.20;50.40
8067;DHT22;4076;48.076;9.118;2023-04-29T16:24:30;18.20;50.40
8067;DHT22;4076;48.076;9.118;2023-04-29T16:26:56;18.10;50.50
8067;DHT22;4076;48.076;9.118;2023-04-29T16:29:23;18.00;50.50
8067;DHT22;4076;48.076;9.118;2023-04-29T16:31:49;18.00;51.00
8067;DHT22;4076;48.076;9.118;2023-04-29T16:34:14;17.90;50.50
8067;DHT22;4076;48.076;9.118;2023-04-29T16:36:40;17.80;50.10
8067;DHT22;4076;48.076;9.118;2023-04-29T16:39:05;17.70;50.30
8067;DHT22;4076;48.076;9.118;2023-04-29T16:41:31;17.50;50.00
8067;DHT22;4076;48.076;9.118;2023-04-29T16:43:57;17.50;49.70